createdAt,value
2018-08-12T00:00:55.850Z,99.37
2018-08-12T00:01:55.887Z,99.66
2018-08-12T00:02:55.924Z,99.18
2018-08-12T00:03:55.964Z,99.18
2018-08-12T00:04:55.999Z,99.60
2018-08-12T00:05:56.038Z,99.37
2018-08-12T00:06:56.079Z,99.37
2018-08-12T00:07:56.117Z,98.99
2018-08-12T00:08:56.156Z,99.56
2018-08-12T00:09:56.196Z,99.37
2018-08-12T00:10:56.227Z,99.37
2018-08-12T00:11:56.264Z,99.27
2018-08-12T00:12:56.301Z,99.18
2018-08-12T00:13:56.340Z,99.08
2018-08-12T00:14:56.378Z,98.99
2018-08-12T00:15:56.418Z,98.80
2018-08-12T00:16:56.459Z,98.51
2018-08-12T00:17:56.492Z,98.42
2018-08-12T00:18:56.534Z,98.22
2018-08-12T00:19:56.571Z,98.22
2018-08-12T00:20:56.661Z,97.46
2018-08-12T00:21:56.647Z,97.85
2018-08-12T00:22:56.688Z,97.56
2018-08-12T00:23:56.722Z,97.41
2018-08-12T00:24:56.757Z,97.41
2018-08-12T00:25:56.800Z,97.41
2018-08-12T00:26:56.834Z,97.13
2018-08-12T00:27:56.879Z,96.84
2018-08-12T00:28:56.909Z,96.65
2018-08-12T00:29:56.947Z,97.32
2018-08-12T00:30:56.983Z,96.56
2018-08-12T00:31:57.024Z,96.56
2018-08-12T00:32:57.063Z,96.17
2018-08-12T00:33:57.103Z,96.65
2018-08-12T00:34:57.369Z,96.75
2018-08-12T00:35:57.175Z,96.56
2018-08-12T00:36:57.209Z,96.65
2018-08-12T00:37:57.247Z,96.65
2018-08-12T00:38:57.285Z,96.46
2018-08-12T00:39:57.333Z,95.98
2018-08-12T00:40:57.361Z,96.27
2018-08-12T00:41:57.398Z,95.79
2018-08-12T00:42:57.435Z,96.08
2018-08-12T00:43:57.481Z,95.41
2018-08-12T00:44:57.511Z,95.41
2018-08-12T00:45:57.550Z,95.70
2018-08-12T00:46:57.587Z,95.89
2018-08-12T00:47:57.625Z,96.17
2018-08-12T00:48:57.665Z,95.51
2018-08-12T00:49:57.700Z,95.51
2018-08-12T00:50:57.737Z,95.98
2018-08-12T00:51:57.776Z,95.89
2018-08-12T00:52:57.817Z,95.70
2018-08-12T00:53:57.853Z,95.08
2018-08-12T00:54:57.888Z,95.08
2018-08-12T00:55:57.928Z,93.93
2018-08-12T00:56:57.963Z,94.60
2018-08-12T00:57:58.003Z,94.13
2018-08-12T00:58:58.052Z,94.32
2018-08-12T00:59:58.077Z,93.74
2018-08-12T01:00:58.116Z,93.55
2018-08-12T01:01:58.151Z,93.65
2018-08-12T01:02:58.192Z,93.08
2018-08-12T01:03:58.228Z,92.89
2018-08-12T01:04:58.266Z,92.22
2018-08-12T01:05:58.303Z,92.13
2018-08-12T01:06:58.342Z,92.50
2018-08-12T01:07:58.379Z,92.13
2018-08-12T01:08:58.415Z,92.22
2018-08-12T01:09:58.455Z,93.08
2018-08-12T01:10:58.492Z,92.03
2018-08-12T01:11:58.529Z,91.94
2018-08-12T01:12:58.573Z,91.74
2018-08-12T01:13:58.605Z,91.74
2018-08-12T01:14:58.641Z,90.50
2018-08-12T01:15:58.679Z,91.46
2018-08-12T01:16:58.716Z,91.08
2018-08-12T01:17:58.753Z,90.79
2018-08-12T01:18:58.794Z,90.60
2018-08-12T01:19:58.833Z,90.89
2018-08-12T01:20:58.870Z,90.31
2018-08-12T01:21:58.904Z,90.79
2018-08-12T01:22:58.941Z,91.17
2018-08-12T01:23:58.982Z,90.60
2018-08-12T01:24:59.017Z,90.70
2018-08-12T01:25:59.055Z,90.70
2018-08-12T01:26:59.101Z,90.12
2018-08-12T01:27:59.132Z,90.31
2018-08-12T01:28:59.168Z,90.46
2018-08-12T01:29:59.203Z,90.41
2018-08-12T01:30:59.251Z,90.60
2018-08-12T01:31:59.279Z,90.22
2018-08-12T01:32:59.324Z,90.22
2018-08-12T01:33:59.357Z,89.94
2018-08-12T01:34:59.402Z,89.55
2018-08-12T01:35:59.504Z,89.51
2018-08-12T01:36:59.466Z,88.65
2018-08-12T01:37:59.504Z,89.03
2018-08-12T01:38:59.548Z,89.13
2018-08-12T01:39:59.578Z,89.13
2018-08-12T01:40:59.656Z,88.65
2018-08-12T01:41:59.657Z,88.08
2018-08-12T01:42:59.696Z,87.79
2018-08-12T01:43:59.727Z,88.56
2018-08-12T01:44:59.768Z,88.75
2018-08-12T01:45:59.812Z,88.75
2018-08-12T01:46:59.839Z,89.03
2018-08-12T01:47:59.879Z,88.46
2018-08-12T01:48:59.914Z,88.37
2018-08-12T01:49:59.953Z,88.27
2018-08-12T01:50:59.989Z,88.93
2018-08-12T01:52:00.027Z,87.70
2018-08-12T01:53:00.072Z,87.79
2018-08-12T01:54:00.111Z,87.70
2018-08-12T01:55:00.139Z,87.70
2018-08-12T01:56:00.176Z,87.41
2018-08-12T01:57:00.218Z,86.94
2018-08-12T01:58:00.251Z,86.46
2018-08-12T01:59:00.289Z,86.65
2018-08-12T02:00:00.326Z,86.84
2018-08-12T02:01:00.363Z,86.18
2018-08-12T02:02:00.401Z,86.18
2018-08-12T02:03:00.446Z,85.51
2018-08-12T02:04:00.475Z,85.32
2018-08-12T02:05:00.514Z,84.84
2018-08-12T02:06:00.552Z,85.13
2018-08-12T02:07:00.588Z,83.80
2018-08-12T02:08:00.623Z,84.65
2018-08-12T02:09:00.663Z,84.04
2018-08-12T02:10:00.699Z,84.23
2018-08-12T02:11:00.736Z,83.85
2018-08-12T02:12:00.773Z,83.18
2018-08-12T02:13:00.811Z,83.37
2018-08-12T02:14:00.848Z,82.80
2018-08-12T02:15:00.887Z,83.47
2018-08-12T02:16:00.928Z,83.94
2018-08-12T02:17:00.959Z,83.94
2018-08-12T02:18:00.996Z,83.85
2018-08-12T02:19:01.033Z,84.70
2018-08-12T02:20:01.121Z,84.61
2018-08-12T02:21:01.110Z,84.04
2018-08-12T02:22:01.147Z,83.56
2018-08-12T02:23:01.183Z,84.52
2018-08-12T02:24:01.219Z,84.13
2018-08-12T02:25:01.257Z,82.70
2018-08-12T02:26:01.295Z,84.52
2018-08-12T02:27:01.339Z,84.70
2018-08-12T02:28:01.368Z,84.89
2018-08-12T02:29:01.407Z,85.28
2018-08-12T02:30:01.444Z,84.42
2018-08-12T02:31:01.580Z,85.18
2018-08-12T02:32:01.519Z,84.52
2018-08-12T02:33:01.555Z,84.13
2018-08-12T02:34:01.593Z,84.52
2018-08-12T02:35:01.633Z,83.85
2018-08-12T02:36:01.673Z,83.85
2018-08-12T02:37:01.704Z,83.28
2018-08-12T02:38:01.742Z,82.70
2018-08-12T02:39:01.856Z,82.32
2018-08-12T02:40:01.826Z,82.99
2018-08-12T02:41:01.869Z,82.80
2018-08-12T02:42:01.891Z,82.32
2018-08-12T02:43:01.928Z,82.42
2018-08-12T02:44:01.972Z,81.95
2018-08-12T02:45:02.003Z,81.85
2018-08-12T02:46:02.038Z,81.56
2018-08-12T02:47:02.076Z,81.47
2018-08-12T02:48:02.112Z,81.28
2018-08-12T02:49:02.150Z,80.80
2018-08-12T02:50:02.191Z,80.99
2018-08-12T02:51:02.225Z,80.99
2018-08-12T02:52:02.261Z,81.56
2018-08-12T02:53:02.302Z,80.99
2018-08-12T02:54:02.335Z,81.28
2018-08-12T02:55:02.373Z,82.04
2018-08-12T02:56:02.408Z,82.14
2018-08-12T02:57:02.446Z,81.85
2018-08-12T02:58:02.484Z,81.47
2018-08-12T02:59:02.522Z,80.80
2018-08-12T03:00:02.557Z,80.42
2018-08-12T03:01:02.597Z,80.13
2018-08-12T03:02:02.631Z,79.85
2018-08-12T03:03:02.668Z,79.66
2018-08-12T03:04:02.706Z,79.47
2018-08-12T03:05:02.744Z,80.52
2018-08-12T03:06:02.780Z,79.09
2018-08-12T03:07:02.816Z,80.23
2018-08-12T03:08:02.854Z,79.38
2018-08-12T03:09:02.892Z,78.99
2018-08-12T03:10:02.928Z,78.80
2018-08-12T03:11:02.963Z,78.04
2018-08-12T03:12:03.002Z,78.14
2018-08-12T03:13:03.042Z,78.23
2018-08-12T03:14:03.075Z,78.04
2018-08-12T03:15:03.111Z,77.66
2018-08-12T03:16:03.149Z,77.43
2018-08-12T03:17:03.187Z,77.24
2018-08-12T03:18:03.221Z,76.67
2018-08-12T03:19:03.262Z,76.48
2018-08-12T03:20:03.303Z,76.39
2018-08-12T03:21:03.332Z,75.24
2018-08-12T03:22:03.369Z,74.96
2018-08-12T03:23:03.406Z,74.77
2018-08-12T03:24:03.443Z,74.58
2018-08-12T03:25:03.481Z,74.77
2018-08-12T03:26:03.516Z,73.82
2018-08-12T03:27:03.554Z,74.10
2018-08-12T03:28:03.590Z,73.82
2018-08-12T03:29:03.635Z,73.82
2018-08-12T03:30:03.701Z,74.58
2018-08-12T03:31:03.702Z,74.48
2018-08-12T03:32:03.738Z,74.58
2018-08-12T03:33:03.778Z,74.01
2018-08-12T03:34:03.812Z,73.72
2018-08-12T03:35:03.849Z,74.01
2018-08-12T03:36:03.885Z,74.10
2018-08-12T03:37:03.922Z,73.34
2018-08-12T03:38:03.959Z,73.53
2018-08-12T03:39:03.996Z,73.25
2018-08-12T03:40:04.034Z,72.39
2018-08-12T03:41:04.070Z,72.20
2018-08-12T03:42:04.109Z,72.49
2018-08-12T03:43:04.143Z,71.82
2018-08-12T03:44:04.185Z,71.25
2018-08-12T03:45:04.216Z,71.53
2018-08-12T03:46:04.255Z,71.53
2018-08-12T03:47:04.291Z,72.11
2018-08-12T03:48:04.327Z,72.49
2018-08-12T03:49:04.364Z,72.58
2018-08-12T03:50:04.402Z,71.72
2018-08-12T03:51:04.450Z,71.63
2018-08-12T03:52:04.475Z,71.34
2018-08-12T03:53:04.512Z,71.34
2018-08-12T03:54:04.548Z,71.44
2018-08-12T03:55:04.587Z,71.44
2018-08-12T03:56:04.622Z,70.68
2018-08-12T03:57:04.658Z,70.49
2018-08-12T03:58:04.695Z,70.10
2018-08-12T03:59:04.732Z,70.58
2018-08-12T04:00:04.767Z,70.39
2018-08-12T04:01:04.809Z,70.30
2018-08-12T04:02:04.845Z,70.97
2018-08-12T04:03:04.879Z,70.58
2018-08-12T04:04:04.917Z,70.39
2018-08-12T04:05:04.954Z,69.73
2018-08-12T04:06:04.989Z,70.30
2018-08-12T04:07:05.034Z,69.73
2018-08-12T04:08:05.063Z,69.44
2018-08-12T04:09:05.102Z,69.63
2018-08-12T04:10:05.138Z,69.82
2018-08-12T04:11:05.174Z,70.30
2018-08-12T04:12:05.211Z,70.87
2018-08-12T04:13:05.250Z,70.39
2018-08-12T04:14:05.284Z,70.87
2018-08-12T04:15:05.320Z,70.01
2018-08-12T04:16:05.363Z,69.82
2018-08-12T04:17:05.396Z,69.63
2018-08-12T04:18:05.431Z,69.73
2018-08-12T04:19:05.521Z,69.15
2018-08-12T04:20:05.534Z,69.15
2018-08-12T04:21:05.564Z,70.10
2018-08-12T04:22:05.578Z,69.15
2018-08-12T04:23:05.613Z,70.39
2018-08-12T04:24:05.651Z,70.58
2018-08-12T04:25:05.688Z,70.39
2018-08-12T04:26:05.725Z,70.87
2018-08-12T04:27:05.762Z,70.77
2018-08-12T04:28:05.797Z,71.82
2018-08-12T04:29:05.839Z,72.49
2018-08-12T04:30:05.873Z,73.34
2018-08-12T04:31:05.916Z,73.63
2018-08-12T04:32:05.945Z,73.82
2018-08-12T04:33:05.981Z,75.34
2018-08-12T04:34:06.022Z,75.43
2018-08-12T04:35:06.056Z,75.81
2018-08-12T04:36:06.093Z,75.72
2018-08-12T04:37:06.130Z,75.91
2018-08-12T04:38:06.166Z,76.57
2018-08-12T04:39:06.204Z,75.53
2018-08-12T04:40:06.241Z,76.86
2018-08-12T04:41:06.279Z,77.81
2018-08-12T04:42:06.315Z,77.43
2018-08-12T04:43:06.350Z,77.62
2018-08-12T04:44:06.389Z,78.48
2018-08-12T04:45:06.425Z,78.71
2018-08-12T04:46:06.574Z,79.38
2018-08-12T04:47:06.499Z,79.85
2018-08-12T04:48:06.534Z,80.99
2018-08-12T04:49:06.573Z,81.09
2018-08-12T04:50:06.609Z,81.66
2018-08-12T04:51:06.646Z,81.76
2018-08-12T04:52:06.681Z,81.56
2018-08-12T04:53:06.719Z,81.85
2018-08-12T04:54:06.756Z,82.14
2018-08-12T04:55:06.793Z,82.04
2018-08-12T04:56:06.829Z,81.85
2018-08-12T04:57:06.866Z,81.47
2018-08-12T04:58:06.906Z,81.47
2018-08-12T04:59:06.945Z,81.76
2018-08-12T05:00:06.978Z,80.13
2018-08-12T05:01:07.018Z,81.85
2018-08-12T05:02:07.051Z,81.85
2018-08-12T05:03:07.096Z,82.04
2018-08-12T05:04:07.127Z,81.70
2018-08-12T05:05:07.163Z,81.66
2018-08-12T05:06:07.202Z,81.98
2018-08-12T05:07:07.239Z,82.27
2018-08-12T05:08:07.274Z,81.79
2018-08-12T05:09:07.311Z,81.89
2018-08-12T05:10:07.349Z,81.60
2018-08-12T05:11:07.385Z,81.98
2018-08-12T05:12:07.422Z,81.70
2018-08-12T05:13:07.459Z,81.70
2018-08-12T05:14:07.497Z,81.60
2018-08-12T05:15:07.535Z,82.75
2018-08-12T05:16:07.570Z,82.08
2018-08-12T05:17:07.610Z,81.79
2018-08-12T05:18:07.646Z,82.75
2018-08-12T05:19:07.685Z,81.23
2018-08-12T05:20:07.727Z,82.27
2018-08-12T05:21:07.758Z,81.13
2018-08-12T05:22:07.797Z,81.89
2018-08-12T05:23:07.832Z,81.98
2018-08-12T05:24:07.870Z,81.89
2018-08-12T05:25:07.906Z,81.89
2018-08-12T05:26:07.944Z,81.51
2018-08-12T05:27:07.982Z,81.23
2018-08-12T05:28:08.018Z,81.41
2018-08-12T05:29:08.054Z,81.89
2018-08-12T05:30:08.093Z,81.98
2018-08-12T05:31:08.130Z,82.18
2018-08-12T05:32:08.168Z,81.89
2018-08-12T05:33:08.204Z,82.27
2018-08-12T05:34:08.241Z,82.65
2018-08-12T05:35:08.279Z,82.08
2018-08-12T05:36:08.326Z,82.93
2018-08-12T05:37:08.351Z,83.61
2018-08-12T05:38:08.398Z,82.65
2018-08-12T05:39:08.430Z,83.32
2018-08-12T05:40:08.464Z,83.89
2018-08-12T05:41:08.502Z,84.27
2018-08-12T05:42:08.539Z,83.80
2018-08-12T05:43:08.576Z,84.75
2018-08-12T05:44:08.614Z,83.80
2018-08-12T05:45:08.651Z,84.69
2018-08-12T05:46:08.694Z,85.74
2018-08-12T05:47:08.728Z,86.41
2018-08-12T05:48:08.762Z,85.84
2018-08-12T05:49:08.800Z,86.12
2018-08-12T05:50:08.844Z,86.79
2018-08-12T05:51:08.964Z,86.79
2018-08-12T05:52:08.913Z,87.55
2018-08-12T05:53:08.955Z,87.65
2018-08-12T05:54:08.987Z,87.74
2018-08-12T05:55:09.024Z,87.65
2018-08-12T05:56:09.069Z,87.88
2018-08-12T05:57:09.149Z,89.12
2018-08-12T05:58:09.137Z,89.31
2018-08-12T05:59:09.174Z,90.45
2018-08-12T06:00:09.213Z,90.26
2018-08-12T06:01:09.264Z,90.55
2018-08-12T06:02:09.286Z,91.13
2018-08-12T06:03:09.324Z,91.50
2018-08-12T06:04:09.364Z,90.36
2018-08-12T06:05:09.397Z,91.03
2018-08-12T06:06:09.462Z,90.84
2018-08-12T06:07:09.477Z,92.93
2018-08-12T06:08:09.526Z,92.22
2018-08-12T06:09:09.549Z,93.08
2018-08-12T06:10:09.589Z,93.36
2018-08-12T06:11:09.629Z,92.60
2018-08-12T06:12:09.660Z,92.50
2018-08-12T06:13:09.701Z,94.89
2018-08-12T06:14:09.738Z,94.70
2018-08-12T06:15:09.776Z,94.98
2018-08-12T06:16:09.812Z,96.22
2018-08-12T06:17:09.865Z,95.94
2018-08-12T06:18:09.893Z,95.32
2018-08-12T06:19:09.935Z,96.46
2018-08-12T06:20:09.967Z,96.75
2018-08-12T06:21:10.009Z,97.03
2018-08-12T06:22:10.041Z,96.56
2018-08-12T06:23:10.077Z,98.08
2018-08-12T06:24:10.116Z,97.85
2018-08-12T06:25:10.153Z,97.18
2018-08-12T06:26:10.199Z,98.90
2018-08-12T06:27:10.230Z,98.90
2018-08-12T06:28:10.269Z,99.08
2018-08-12T06:29:10.329Z,98.90
2018-08-12T06:30:10.345Z,99.95
2018-08-12T06:31:10.386Z,99.66
2018-08-12T06:32:10.426Z,99.62
2018-08-12T06:33:10.462Z,99.80
2018-08-12T06:34:10.509Z,99.99
2018-08-12T06:35:10.536Z,99.99
2018-08-12T06:36:10.574Z,99.99
2018-08-12T06:37:10.610Z,99.99
2018-08-12T06:38:10.649Z,99.99
2018-08-12T06:39:10.685Z,99.99
2018-08-12T06:40:10.723Z,99.99
2018-08-12T06:41:10.765Z,99.99
2018-08-12T06:42:10.814Z,99.99
2018-08-12T06:43:10.840Z,99.99
2018-08-12T06:44:10.878Z,99.99
2018-08-12T06:45:10.917Z,99.99
2018-08-12T06:46:10.963Z,99.99
2018-08-12T06:47:11.003Z,99.99
2018-08-12T06:48:11.036Z,99.99
2018-08-12T06:49:11.082Z,99.99
2018-08-12T06:50:11.116Z,99.99
2018-08-12T06:51:11.155Z,99.99
2018-08-12T06:52:11.210Z,99.71
2018-08-12T06:53:11.237Z,99.90
2018-08-12T06:54:11.265Z,99.99
2018-08-12T06:55:11.307Z,99.99
2018-08-12T06:56:11.351Z,99.99
2018-08-12T06:57:11.486Z,99.86
2018-08-12T06:58:11.425Z,99.86
2018-08-12T06:59:11.457Z,99.86
2018-08-12T07:00:11.502Z,99.57
2018-08-12T07:01:11.537Z,99.10
2018-08-12T07:02:11.576Z,98.38
2018-08-12T07:03:11.615Z,97.61
2018-08-12T07:04:11.652Z,97.52
2018-08-12T07:05:11.690Z,98.86
2018-08-12T07:06:11.730Z,98.47
2018-08-12T07:07:11.772Z,97.61
2018-08-12T07:08:11.893Z,96.70
2018-08-12T07:09:11.859Z,96.03
2018-08-12T07:10:11.891Z,96.70
2018-08-12T07:11:11.926Z,95.56
2018-08-12T07:12:11.966Z,93.93
2018-08-12T07:13:12.004Z,92.15
2018-08-12T07:14:12.093Z,91.49
2018-08-12T07:15:12.088Z,90.62
2018-08-12T07:16:12.127Z,91.67
2018-08-12T07:17:12.164Z,90.72
2018-08-12T07:18:12.213Z,89.28
2018-08-12T07:19:12.238Z,90.09
2018-08-12T07:20:12.282Z,88.84
2018-08-12T07:21:12.326Z,88.75
2018-08-12T07:22:12.359Z,89.13
2018-08-12T07:23:12.399Z,89.04
2018-08-12T07:24:12.440Z,88.51
2018-08-12T07:25:12.476Z,87.84
2018-08-12T07:26:12.526Z,88.31
2018-08-12T07:27:12.557Z,88.31
2018-08-12T07:28:12.597Z,86.21
2018-08-12T07:29:12.642Z,84.81
2018-08-12T07:30:12.726Z,84.71
2018-08-12T07:31:12.718Z,85.38
2018-08-12T07:32:12.762Z,84.91
2018-08-12T07:33:12.805Z,85.10
2018-08-12T07:34:12.835Z,84.04
2018-08-12T07:35:12.881Z,79.76
2018-08-12T07:36:12.919Z,78.90
2018-08-12T07:37:12.954Z,79.86
2018-08-12T07:38:12.993Z,78.80
2018-08-12T07:39:13.038Z,77.56
2018-08-12T07:40:13.083Z,76.98
2018-08-12T07:41:13.114Z,78.13
2018-08-12T07:42:13.315Z,77.84
2018-08-12T07:43:13.200Z,77.98
2018-08-12T07:44:13.239Z,77.50
2018-08-12T07:45:13.276Z,76.44
2018-08-12T07:46:13.317Z,76.54
2018-08-12T07:47:13.368Z,78.55
2018-08-12T07:48:13.399Z,77.11
2018-08-12T07:49:13.455Z,75.38
2018-08-12T07:50:13.497Z,73.94
2018-08-12T07:51:13.537Z,73.66
2018-08-12T07:52:13.564Z,72.22
2018-08-12T07:53:13.601Z,73.56
2018-08-12T07:54:13.641Z,73.46
2018-08-12T07:55:13.682Z,73.60
2018-08-12T07:56:13.724Z,72.34
2018-08-12T07:57:13.765Z,72.34
2018-08-12T07:58:13.803Z,71.39
2018-08-12T07:59:13.847Z,70.23
2018-08-12T08:00:13.886Z,70.62
2018-08-12T08:01:13.930Z,71.39
2018-08-12T08:02:13.967Z,71.87
2018-08-12T08:03:14.008Z,72.06
2018-08-12T08:04:14.052Z,70.72
2018-08-12T08:05:14.090Z,70.33
2018-08-12T08:06:14.152Z,69.46
2018-08-12T08:07:14.171Z,70.14
2018-08-12T08:08:14.261Z,69.85
2018-08-12T08:09:14.261Z,69.95
2018-08-12T08:10:14.293Z,69.95
2018-08-12T08:11:14.330Z,71.00
2018-08-12T08:12:14.381Z,71.29
2018-08-12T08:13:14.416Z,69.95
2018-08-12T08:14:14.459Z,69.66
2018-08-12T08:15:14.495Z,70.43
2018-08-12T08:16:14.542Z,71.48
2018-08-12T08:17:14.594Z,70.37
2018-08-12T08:18:14.620Z,69.02
2018-08-12T08:19:14.674Z,69.50
2018-08-12T08:20:14.852Z,68.92
2018-08-12T08:21:14.742Z,67.86
2018-08-12T08:22:14.784Z,65.27
2018-08-12T08:23:14.821Z,64.73
2018-08-12T08:24:14.863Z,66.65
2018-08-12T08:25:14.923Z,64.63
2018-08-12T08:26:14.947Z,64.73
2018-08-12T08:27:14.987Z,64.53
2018-08-12T08:28:15.033Z,63.57
2018-08-12T08:29:15.075Z,62.26
2018-08-12T08:30:15.117Z,62.35
2018-08-12T08:31:15.194Z,62.54
2018-08-12T08:32:15.279Z,62.74
2018-08-12T08:33:15.251Z,62.16
2018-08-12T08:34:15.273Z,61.19
2018-08-12T08:35:15.314Z,59.94
2018-08-12T08:36:15.361Z,60.75
2018-08-12T08:37:15.396Z,60.17
2018-08-12T08:38:15.457Z,59.88
2018-08-12T08:39:15.478Z,58.82
2018-08-12T08:40:15.521Z,60.46
2018-08-12T08:41:15.561Z,58.92
2018-08-12T08:42:15.601Z,58.82
2018-08-12T08:43:15.645Z,59.14
2018-08-12T08:44:15.684Z,58.27
2018-08-12T08:45:15.725Z,58.37
2018-08-12T08:46:15.768Z,57.89
2018-08-12T08:47:15.808Z,57.98
2018-08-12T08:48:15.853Z,57.79
2018-08-12T08:49:15.898Z,57.89
2018-08-12T08:50:15.933Z,57.02
2018-08-12T08:51:15.975Z,56.82
2018-08-12T08:52:16.015Z,57.12
2018-08-12T08:53:16.059Z,57.31
2018-08-12T08:54:16.103Z,58.01
2018-08-12T08:55:16.144Z,58.30
2018-08-12T08:56:16.182Z,57.92
2018-08-12T08:57:16.221Z,58.40
2018-08-12T08:58:16.268Z,57.34
2018-08-12T08:59:16.306Z,57.14
2018-08-12T09:00:16.351Z,57.05
2018-08-12T09:01:16.441Z,58.01
2018-08-12T09:02:16.443Z,57.92
2018-08-12T09:03:16.469Z,57.07
2018-08-12T09:04:16.512Z,57.85
2018-08-12T09:05:16.566Z,56.88
2018-08-12T09:06:16.604Z,56.69
2018-08-12T09:07:16.636Z,56.49
2018-08-12T09:08:16.745Z,56.49
2018-08-12T09:09:17.062Z,56.30
2018-08-12T09:10:16.766Z,57.07
2018-08-12T09:11:16.819Z,56.11
2018-08-12T09:12:16.863Z,57.07
2018-08-12T09:13:16.888Z,56.40
2018-08-12T09:14:16.928Z,56.01
2018-08-12T09:15:16.969Z,56.04
2018-08-12T09:16:17.011Z,57.10
2018-08-12T09:17:17.208Z,56.33
2018-08-12T09:18:17.195Z,55.08
2018-08-12T09:19:17.137Z,55.76
2018-08-12T09:20:17.180Z,54.50
2018-08-12T09:21:17.225Z,54.79
2018-08-12T09:22:17.261Z,54.88
2018-08-12T09:23:17.302Z,54.50
2018-08-12T09:24:17.354Z,54.53
2018-08-12T09:25:17.400Z,54.05
2018-08-12T09:26:17.437Z,53.56
2018-08-12T09:27:17.474Z,53.95
2018-08-12T09:28:17.511Z,53.56
2018-08-12T09:29:17.554Z,53.47
2018-08-12T09:30:17.598Z,53.66
2018-08-12T09:31:17.641Z,53.88
2018-08-12T09:32:17.688Z,53.39
2018-08-12T09:33:17.730Z,53.49
2018-08-12T09:34:17.782Z,52.72
2018-08-12T09:35:17.815Z,52.72
2018-08-12T09:36:17.859Z,51.75
2018-08-12T09:37:17.893Z,51.95
2018-08-12T09:38:17.934Z,52.36
2018-08-12T09:39:17.973Z,52.04
2018-08-12T09:40:18.020Z,52.65
2018-08-12T09:41:18.059Z,51.95
2018-08-12T09:42:18.105Z,51.97
2018-08-12T09:43:18.144Z,49.92
2018-08-12T09:44:18.182Z,50.98
2018-08-12T09:45:18.227Z,50.50
2018-08-12T09:46:18.269Z,50.50
2018-08-12T09:47:18.312Z,50.33
2018-08-12T09:48:18.353Z,50.04
2018-08-12T09:49:18.398Z,50.43
2018-08-12T09:50:18.460Z,50.43
2018-08-12T09:51:18.528Z,51.49
2018-08-12T09:52:18.527Z,51.59
2018-08-12T09:53:18.566Z,50.43
2018-08-12T09:54:18.611Z,49.95
2018-08-12T09:55:18.655Z,49.95
2018-08-12T09:56:18.694Z,50.13
2018-08-12T09:57:18.734Z,49.95
2018-08-12T09:58:18.798Z,50.62
2018-08-12T09:59:18.825Z,50.33
2018-08-12T10:00:18.923Z,50.43
2018-08-12T10:01:18.911Z,49.46
2018-08-12T10:02:18.948Z,49.17
2018-08-12T10:03:18.989Z,49.37
2018-08-12T10:04:19.033Z,49.65
2018-08-12T10:05:19.072Z,49.17
2018-08-12T10:06:19.120Z,48.49
2018-08-12T10:07:19.211Z,48.03
2018-08-12T10:08:19.201Z,47.26
2018-08-12T10:09:19.241Z,47.55
2018-08-12T10:10:19.285Z,47.16
2018-08-12T10:11:19.351Z,47.45
2018-08-12T10:12:19.369Z,47.00
2018-08-12T10:13:19.425Z,47.00
2018-08-12T10:14:19.453Z,46.42
2018-08-12T10:15:19.500Z,45.93
2018-08-12T10:16:19.549Z,45.74
2018-08-12T10:17:19.582Z,45.93
2018-08-12T10:18:19.626Z,46.12
2018-08-12T10:19:19.668Z,46.32
2018-08-12T10:20:19.711Z,46.42
2018-08-12T10:21:19.753Z,46.12
2018-08-12T10:22:19.798Z,46.22
2018-08-12T10:23:19.840Z,45.74
2018-08-12T10:24:19.884Z,46.22
2018-08-12T10:25:19.924Z,45.25
2018-08-12T10:26:19.968Z,44.96
2018-08-12T10:27:20.009Z,44.67
2018-08-12T10:28:20.051Z,45.16
2018-08-12T10:29:20.175Z,45.08
2018-08-12T10:30:20.137Z,44.21
2018-08-12T10:31:20.184Z,43.15
2018-08-12T10:32:20.222Z,43.44
2018-08-12T10:33:20.268Z,43.54
2018-08-12T10:34:20.308Z,43.92
2018-08-12T10:35:20.356Z,43.15
2018-08-12T10:36:20.394Z,43.34
2018-08-12T10:37:20.442Z,43.54
2018-08-12T10:38:20.479Z,44.40
2018-08-12T10:39:20.520Z,44.98
2018-08-12T10:40:20.566Z,43.82
2018-08-12T10:41:20.615Z,43.82
2018-08-12T10:42:20.658Z,43.82
2018-08-12T10:43:20.694Z,44.21
2018-08-12T10:44:20.744Z,43.63
2018-08-12T10:45:20.780Z,43.44
2018-08-12T10:46:20.823Z,43.63
2018-08-12T10:47:20.867Z,43.44
2018-08-12T10:48:20.924Z,44.13
2018-08-12T10:49:20.951Z,44.21
2018-08-12T10:50:21.003Z,43.65
2018-08-12T10:51:21.046Z,43.75
2018-08-12T10:52:21.229Z,43.37
2018-08-12T10:53:21.125Z,43.07
2018-08-12T10:54:21.172Z,43.17
2018-08-12T10:55:21.215Z,41.91
2018-08-12T10:56:21.252Z,43.27
2018-08-12T10:57:21.295Z,42.80
2018-08-12T10:58:21.339Z,42.88
2018-08-12T10:59:21.389Z,43.09
2018-08-12T11:00:21.423Z,43.00
2018-08-12T11:01:21.468Z,43.29
2018-08-12T11:02:21.519Z,42.41
2018-08-12T11:03:21.556Z,42.03
2018-08-12T11:04:21.616Z,41.45
2018-08-12T11:05:21.679Z,42.32
2018-08-12T11:06:21.696Z,42.61
2018-08-12T11:07:21.756Z,43.38
2018-08-12T11:08:21.847Z,43.58
2018-08-12T11:09:21.817Z,43.87
2018-08-12T11:10:21.857Z,42.71
2018-08-12T11:11:21.920Z,42.90
2018-08-12T11:12:22.011Z,42.13
2018-08-12T11:13:21.993Z,43.12
2018-08-12T11:14:22.027Z,42.24
2018-08-12T11:15:22.074Z,42.63
2018-08-12T11:16:22.120Z,42.34
2018-08-12T11:17:22.175Z,41.66
2018-08-12T11:18:22.204Z,42.34
2018-08-12T11:19:22.257Z,42.05
2018-08-12T11:20:22.299Z,42.54
2018-08-12T11:21:22.334Z,42.34
2018-08-12T11:22:22.373Z,42.72
2018-08-12T11:23:22.419Z,42.44
2018-08-12T11:24:22.460Z,42.72
2018-08-12T11:25:22.508Z,42.24
2018-08-12T11:26:22.549Z,42.72
2018-08-12T11:27:22.590Z,42.55
2018-08-12T11:28:23.092Z,42.94
2018-08-12T11:29:22.685Z,42.55
2018-08-12T11:30:22.732Z,42.17
2018-08-12T11:31:22.769Z,41.68
2018-08-12T11:32:22.819Z,42.46
2018-08-12T11:33:22.865Z,42.46
2018-08-12T11:34:22.897Z,41.68
2018-08-12T11:35:22.940Z,41.88
2018-08-12T11:36:22.985Z,41.10
2018-08-12T11:37:23.342Z,41.30
2018-08-12T11:38:23.069Z,41.30
2018-08-12T11:39:23.124Z,40.61
2018-08-12T11:40:23.156Z,40.71
2018-08-12T11:41:23.203Z,41.20
2018-08-12T11:42:23.248Z,41.68
2018-08-12T11:43:23.290Z,41.88
2018-08-12T11:44:23.334Z,41.49
2018-08-12T11:45:23.382Z,41.68
2018-08-12T11:46:23.437Z,40.13
2018-08-12T11:47:23.485Z,40.81
2018-08-12T11:48:23.515Z,39.94
2018-08-12T11:49:25.088Z,41.20
2018-08-12T11:50:23.596Z,41.00
2018-08-12T11:51:23.639Z,40.33
2018-08-12T11:52:23.681Z,39.55
2018-08-12T11:53:23.735Z,39.65
2018-08-12T11:54:23.768Z,38.87
2018-08-12T11:55:23.811Z,39.55
2018-08-12T11:56:23.857Z,39.26
2018-08-12T11:57:23.948Z,38.48
2018-08-12T11:58:23.943Z,38.58
2018-08-12T11:59:23.989Z,38.48
2018-08-12T12:00:24.030Z,36.93
2018-08-12T12:01:24.074Z,36.76
2018-08-12T12:02:24.122Z,37.05
2018-08-12T12:03:24.172Z,37.03
2018-08-12T12:04:24.358Z,38.31
2018-08-12T12:05:24.257Z,38.50
2018-08-12T12:06:24.298Z,38.40
2018-08-12T12:07:24.336Z,38.40
2018-08-12T12:08:24.394Z,38.31
2018-08-12T12:09:24.433Z,36.95
2018-08-12T12:10:24.474Z,37.63
2018-08-12T12:11:24.514Z,37.15
2018-08-12T12:12:24.554Z,37.16
2018-08-12T12:13:24.604Z,36.48
2018-08-12T12:14:24.646Z,36.68
2018-08-12T12:15:24.687Z,36.87
2018-08-12T12:16:24.734Z,37.07
2018-08-12T12:17:24.774Z,37.55
2018-08-12T12:18:24.824Z,37.35
2018-08-12T12:19:24.862Z,36.38
2018-08-12T12:20:24.935Z,35.61
2018-08-12T12:21:24.951Z,35.71
2018-08-12T12:22:24.995Z,36.38
2018-08-12T12:23:25.059Z,36.97
2018-08-12T12:24:25.088Z,36.38
2018-08-12T12:25:25.135Z,34.74
2018-08-12T12:26:25.172Z,35.32
2018-08-12T12:27:25.233Z,35.51
2018-08-12T12:28:25.259Z,36.38
2018-08-12T12:29:25.312Z,36.97
2018-08-12T12:30:25.352Z,36.87
2018-08-12T12:31:25.407Z,35.63
2018-08-12T12:32:25.436Z,35.72
2018-08-12T12:33:25.484Z,34.66
2018-08-12T12:34:25.531Z,35.63
2018-08-12T12:35:25.582Z,35.53
2018-08-12T12:36:25.614Z,33.90
2018-08-12T12:37:25.658Z,34.28
2018-08-12T12:38:25.718Z,33.61
2018-08-12T12:39:25.752Z,33.80
2018-08-12T12:40:25.801Z,33.22
2018-08-12T12:41:25.858Z,33.99
2018-08-12T12:42:25.880Z,33.70
2018-08-12T12:43:25.919Z,32.84
2018-08-12T12:44:25.963Z,33.43
2018-08-12T12:45:26.017Z,33.04
2018-08-12T12:46:26.067Z,33.53
2018-08-12T12:47:26.107Z,33.23
2018-08-12T12:48:26.143Z,33.23
2018-08-12T12:49:26.235Z,33.81
2018-08-12T12:50:26.276Z,32.55
2018-08-12T12:51:26.279Z,31.38
2018-08-12T12:52:26.347Z,32.55
2018-08-12T12:53:26.375Z,32.26